createdAt,value
2023-03-11T00:01:00.499Z,76.74
2023-03-11T00:03:29.816Z,76.68
2023-03-11T00:06:02.308Z,76.61
2023-03-11T00:08:32.352Z,76.57
2023-03-11T00:11:06.197Z,76.49
2023-03-11T00:13:37.129Z,76.42
2023-03-11T00:16:07.771Z,76.40
2023-03-11T00:18:37.779Z,76.28
2023-03-11T00:21:14.802Z,76.12
2023-03-11T00:23:44.987Z,75.99
2023-03-11T00:26:13.676Z,75.74
2023-03-11T00:28:41.944Z,75.49
2023-03-11T00:31:13.837Z,75.26
2023-03-11T00:33:42.190Z,75.12
2023-03-11T00:36:24.913Z,75.03
2023-03-11T00:38:53.222Z,74.95
2023-03-11T00:41:21.452Z,74.91
2023-03-11T00:43:50.246Z,74.87
2023-03-11T00:46:18.873Z,74.91
2023-03-11T00:48:47.095Z,75.02
2023-03-11T00:51:16.295Z,75.20
2023-03-11T00:53:45.053Z,75.30
2023-03-11T00:56:15.726Z,75.49
2023-03-11T00:58:46.058Z,75.50
2023-03-11T01:01:18.804Z,75.69
2023-03-11T01:03:47.411Z,75.93
2023-03-11T01:06:15.784Z,76.34
2023-03-11T01:08:43.965Z,76.70
2023-03-11T01:11:12.354Z,77.12
2023-03-11T01:13:40.725Z,77.34
2023-03-11T01:16:09.470Z,77.69
2023-03-11T01:18:37.984Z,77.93
2023-03-11T01:21:06.310Z,77.88
2023-03-11T01:23:34.744Z,77.69
2023-03-11T01:26:02.821Z,77.55
2023-03-11T01:28:31.102Z,77.57
2023-03-11T01:31:00.943Z,77.62
2023-03-11T01:33:29.390Z,77.71
2023-03-11T01:35:57.705Z,77.81
2023-03-11T01:38:29.120Z,77.90
2023-03-11T01:40:57.489Z,78.02
2023-03-11T01:43:50.756Z,78.07
2023-03-11T01:46:26.763Z,78.21
2023-03-11T01:48:57.192Z,78.29
2023-03-11T01:51:37.246Z,78.33
2023-03-11T01:54:13.783Z,78.29
2023-03-11T01:56:44.035Z,78.34
2023-03-11T01:59:16.706Z,78.29
2023-03-11T02:01:55.538Z,78.21
2023-03-11T02:04:24.788Z,78.21
2023-03-11T02:06:57.043Z,78.13
2023-03-11T02:09:27.517Z,78.03
2023-03-11T02:11:58.207Z,78.04
2023-03-11T02:14:30.741Z,78.05
2023-03-11T02:17:01.680Z,78.07
2023-03-11T02:19:49.118Z,78.10
2023-03-11T02:22:20.331Z,78.17
2023-03-11T02:25:06.111Z,78.14
2023-03-11T02:27:39.102Z,77.98
2023-03-11T02:30:11.020Z,77.80
2023-03-11T02:32:41.501Z,77.54
2023-03-11T02:35:11.553Z,77.29
2023-03-11T02:37:49.090Z,77.03
2023-03-11T02:40:23.935Z,76.61
2023-03-11T02:42:59.571Z,76.23
2023-03-11T02:45:31.115Z,75.89
2023-03-11T02:48:01.324Z,75.59
2023-03-11T02:50:32.296Z,73.83
2023-03-11T02:53:00.430Z,67.97
2023-03-11T02:55:28.710Z,66.00
2023-03-11T02:57:56.980Z,65.17
2023-03-11T03:00:26.771Z,65.11
2023-03-11T03:02:59.871Z,66.24
2023-03-11T03:05:28.829Z,67.29
2023-03-11T03:07:59.796Z,67.85
2023-03-11T03:10:28.788Z,68.63
2023-03-11T03:12:58.407Z,69.12
2023-03-11T03:15:26.858Z,69.54
2023-03-11T03:17:55.092Z,69.49
2023-03-11T03:20:24.037Z,69.89
2023-03-11T03:22:54.683Z,69.76
2023-03-11T03:25:26.124Z,68.94
2023-03-11T03:27:54.903Z,68.96
2023-03-11T03:30:23.398Z,69.50
2023-03-11T03:32:52.286Z,70.03
2023-03-11T03:35:20.781Z,70.61
2023-03-11T03:38:15.051Z,70.02
2023-03-11T03:40:48.251Z,69.75
2023-03-11T03:43:18.463Z,69.16
2023-03-11T03:45:56.325Z,68.58
2023-03-11T03:48:28.432Z,68.52
2023-03-11T03:50:57.621Z,68.80
2023-03-11T03:53:25.800Z,69.21
2023-03-11T03:55:54.758Z,70.14
2023-03-11T03:58:23.686Z,71.07
2023-03-11T04:00:57.259Z,71.32
2023-03-11T04:03:27.461Z,71.55
2023-03-11T04:06:15.240Z,71.28
2023-03-11T04:08:44.243Z,70.85
2023-03-11T04:11:13.546Z,70.96
2023-03-11T04:13:44.916Z,71.71
2023-03-11T04:16:20.531Z,71.25
2023-03-11T04:18:48.881Z,71.49
2023-03-11T04:21:18.940Z,72.07
2023-03-11T04:23:47.615Z,72.44
2023-03-11T04:26:17.335Z,72.38
2023-03-11T04:28:45.710Z,72.60
2023-03-11T04:31:14.647Z,72.66
2023-03-11T04:33:43.082Z,72.86
2023-03-11T04:36:13.216Z,73.21
2023-03-11T04:38:41.671Z,73.27
2023-03-11T04:41:11.916Z,73.48
2023-03-11T04:43:41.660Z,73.74
2023-03-11T04:46:10.166Z,73.37
2023-03-11T04:48:39.704Z,73.43
2023-03-11T04:51:09.302Z,73.20
2023-03-11T04:53:41.042Z,73.45
2023-03-11T04:58:54.030Z,73.83
2023-03-11T05:01:23.048Z,74.19
2023-03-11T05:03:52.008Z,74.14
2023-03-11T05:06:20.407Z,74.01
2023-03-11T05:08:48.947Z,74.30
2023-03-11T05:11:17.380Z,74.25
2023-03-11T05:13:47.101Z,74.53
2023-03-11T05:16:16.312Z,75.07
2023-03-11T05:18:45.032Z,75.54
2023-03-11T05:21:15.248Z,75.79
2023-03-11T05:23:45.355Z,76.09
2023-03-11T05:26:14.201Z,76.61
2023-03-11T05:28:44.283Z,77.13
2023-03-11T05:31:13.799Z,77.29
2023-03-11T05:33:42.349Z,77.71
2023-03-11T05:36:13.607Z,78.22
2023-03-11T05:38:43.824Z,78.48
2023-03-11T05:41:12.241Z,78.93
2023-03-11T05:43:43.261Z,79.47
2023-03-11T05:46:12.358Z,79.80
2023-03-11T05:48:41.054Z,80.07
2023-03-11T05:51:11.962Z,80.43
2023-03-11T05:53:48.294Z,80.85
2023-03-11T05:56:22.689Z,81.37
2023-03-11T05:58:51.869Z,81.90
2023-03-11T06:01:21.278Z,82.38
2023-03-11T06:03:50.816Z,82.68
2023-03-11T06:06:19.621Z,82.93
2023-03-11T06:08:50.338Z,83.31
2023-03-11T06:11:19.858Z,83.62
2023-03-11T06:13:48.853Z,83.90
2023-03-11T06:16:17.540Z,84.25
2023-03-11T06:18:46.425Z,84.50
2023-03-11T06:21:22.250Z,84.75
2023-03-11T06:23:54.252Z,84.72
2023-03-11T06:26:23.851Z,84.98
2023-03-11T06:28:52.901Z,84.81
2023-03-11T06:31:25.587Z,85.11
2023-03-11T06:33:59.553Z,85.43
2023-03-11T06:36:32.748Z,85.61
2023-03-11T06:39:02.234Z,85.70
2023-03-11T06:41:35.015Z,85.73
2023-03-11T06:44:04.522Z,85.77
2023-03-11T06:46:33.213Z,86.03
2023-03-11T06:49:01.686Z,86.22
2023-03-11T06:51:31.320Z,86.41
2023-03-11T06:54:00.714Z,86.59
2023-03-11T06:56:31.571Z,86.77
2023-03-11T06:59:04.523Z,87.03
2023-03-11T07:01:34.811Z,87.38
2023-03-11T07:04:07.008Z,87.75
2023-03-11T07:06:37.862Z,87.95
2023-03-11T07:09:15.452Z,88.04
2023-03-11T07:11:45.674Z,88.18
2023-03-11T07:14:19.694Z,88.41
2023-03-11T07:16:50.560Z,88.50
2023-03-11T07:19:28.118Z,88.59
2023-03-11T07:21:57.307Z,88.80
2023-03-11T07:24:25.815Z,88.65
2023-03-11T07:26:54.381Z,88.52
2023-03-11T07:29:23.261Z,88.59
2023-03-11T07:31:52.073Z,88.65
2023-03-11T07:34:20.840Z,88.50
2023-03-11T07:36:49.741Z,88.57
2023-03-11T07:39:19.317Z,88.80
2023-03-11T07:41:48.221Z,88.79
2023-03-11T07:44:18.198Z,88.57
2023-03-11T07:46:47.129Z,88.65
2023-03-11T07:49:15.628Z,88.80
2023-03-11T07:51:45.039Z,88.76
2023-03-11T07:54:13.917Z,89.12
2023-03-11T07:56:42.814Z,89.21
2023-03-11T07:59:11.519Z,89.13
2023-03-11T08:01:41.618Z,89.30
2023-03-11T08:04:14.522Z,89.54
2023-03-11T08:06:46.774Z,89.75
2023-03-11T08:09:15.753Z,89.86
2023-03-11T08:11:44.435Z,89.83
2023-03-11T08:14:12.941Z,89.97
2023-03-11T08:16:41.815Z,89.76
2023-03-11T08:19:14.357Z,89.66
2023-03-11T08:21:42.943Z,89.81
2023-03-11T08:24:13.830Z,89.96
2023-03-11T08:26:42.759Z,90.06
2023-03-11T08:29:11.463Z,89.83
2023-03-11T08:31:39.968Z,89.82
2023-03-11T08:34:12.125Z,89.37
2023-03-11T08:36:40.983Z,88.81
2023-03-11T08:39:10.196Z,88.75
2023-03-11T08:41:39.284Z,88.34
2023-03-11T08:44:08.276Z,88.39
2023-03-11T08:46:38.778Z,88.44
2023-03-11T08:49:08.101Z,87.79
2023-03-11T08:51:37.562Z,87.75
2023-03-11T08:54:06.924Z,87.69
2023-03-11T08:56:35.689Z,87.70
2023-03-11T08:59:04.499Z,87.69
2023-03-11T09:01:33.262Z,87.65
2023-03-11T09:04:02.543Z,87.26
2023-03-11T09:06:31.326Z,87.04
2023-03-11T09:09:00.700Z,87.21
2023-03-11T09:11:29.761Z,86.75
2023-03-11T09:13:58.865Z,85.69
2023-03-11T09:16:28.089Z,85.56
2023-03-11T09:18:57.049Z,85.86
2023-03-11T09:21:25.823Z,85.76
2023-03-11T09:23:54.810Z,85.87
2023-03-11T09:26:24.033Z,85.50
2023-03-11T09:28:54.156Z,85.41
2023-03-11T09:31:23.472Z,85.54
2023-03-11T09:33:56.647Z,85.44
2023-03-11T09:36:25.532Z,85.37
2023-03-11T09:38:54.602Z,85.44
2023-03-11T09:41:57.419Z,85.47
2023-03-11T09:44:50.281Z,84.00
2023-03-11T09:47:38.635Z,84.32
2023-03-11T09:50:26.426Z,84.40
2023-03-11T09:53:25.642Z,83.83
2023-03-11T09:56:00.230Z,83.78
2023-03-11T09:58:48.241Z,83.96
2023-03-11T10:01:25.472Z,84.13
2023-03-11T10:04:09.289Z,84.18
2023-03-11T10:06:40.292Z,84.60
2023-03-11T10:09:53.660Z,84.43
2023-03-11T10:12:42.054Z,83.12
2023-03-11T10:16:00.456Z,82.04
2023-03-11T10:18:45.292Z,81.61
2023-03-11T10:21:42.120Z,82.80
2023-03-11T10:24:36.503Z,83.09
2023-03-11T10:27:18.724Z,82.98
2023-03-11T10:30:36.272Z,82.16
2023-03-11T10:33:41.482Z,81.10
2023-03-11T10:36:19.890Z,81.00
2023-03-11T10:38:50.733Z,80.42
2023-03-11T10:41:36.439Z,80.79
2023-03-11T10:44:28.766Z,80.81
2023-03-11T10:46:57.570Z,79.84
2023-03-11T10:49:27.070Z,79.97
2023-03-11T10:52:00.809Z,80.34
2023-03-11T10:54:34.314Z,80.39
2023-03-11T10:57:07.016Z,79.86
2023-03-11T10:59:50.681Z,80.61
2023-03-11T11:02:32.723Z,80.17
2023-03-11T11:05:07.429Z,79.42
2023-03-11T11:07:42.364Z,78.97
2023-03-11T11:10:23.126Z,77.74
2023-03-11T11:13:00.120Z,76.63
2023-03-11T11:15:57.730Z,75.67
2023-03-11T11:18:43.418Z,74.84
2023-03-11T11:21:28.511Z,75.01
2023-03-11T11:24:27.474Z,74.93
2023-03-11T11:27:26.305Z,74.67
2023-03-11T11:30:10.004Z,75.15
2023-03-11T11:32:39.110Z,75.65
2023-03-11T11:35:13.119Z,75.82
2023-03-11T11:37:48.953Z,75.43
2023-03-11T11:40:20.722Z,74.00
2023-03-11T11:42:54.526Z,74.08
2023-03-11T11:45:45.882Z,73.97
2023-03-11T11:48:27.330Z,73.56
2023-03-11T11:51:01.715Z,72.52
2023-03-11T11:53:33.270Z,72.50
2023-03-11T11:56:02.334Z,72.78
2023-03-11T11:58:32.332Z,70.83
2023-03-11T12:01:16.360Z,69.91
2023-03-11T12:04:04.272Z,71.39
2023-03-11T12:06:39.860Z,70.99
2023-03-11T12:09:24.747Z,71.22
2023-03-11T12:11:57.870Z,72.19
2023-03-11T12:14:39.606Z,71.98
2023-03-11T12:17:11.108Z,72.18
2023-03-11T12:19:55.314Z,73.14
2023-03-11T12:23:06.290Z,76.70
2023-03-11T12:25:55.540Z,77.31
2023-03-11T12:28:50.266Z,77.61
2023-03-11T12:31:20.214Z,78.12
2023-03-11T12:33:52.199Z,77.77
2023-03-11T12:36:57.574Z,76.59
2023-03-11T12:39:36.702Z,76.90
2023-03-11T12:42:11.339Z,77.21
2023-03-11T12:44:41.941Z,77.17
2023-03-11T12:47:11.873Z,76.56
2023-03-11T12:49:43.689Z,75.90
2023-03-11T12:52:13.574Z,76.03
2023-03-11T12:54:45.154Z,76.16
2023-03-11T12:57:17.578Z,75.16
2023-03-11T13:00:12.843Z,75.26
2023-03-11T13:03:16.114Z,75.19
2023-03-11T13:06:23.862Z,73.58
2023-03-11T13:08:55.847Z,70.67
2023-03-11T13:11:33.976Z,68.32
2023-03-11T13:14:31.313Z,68.28
2023-03-11T13:17:27.534Z,67.12
2023-03-11T13:19:58.401Z,66.95
2023-03-11T13:22:56.389Z,68.44
2023-03-11T13:25:30.450Z,70.40
2023-03-11T13:28:32.158Z,72.46
2023-03-11T13:31:20.825Z,74.15
2023-03-11T13:33:55.076Z,75.91
2023-03-11T13:36:50.933Z,76.96
2023-03-11T13:39:32.393Z,77.57
2023-03-11T13:42:01.154Z,77.78
2023-03-11T13:44:35.448Z,77.48
2023-03-11T13:47:15.783Z,77.48
2023-03-11T13:50:13.419Z,77.49
2023-03-11T13:52:49.778Z,76.88
2023-03-11T13:55:51.240Z,75.45
2023-03-11T13:58:23.927Z,75.39
2023-03-11T14:01:01.598Z,75.36
2023-03-11T14:03:41.080Z,75.48
2023-03-11T14:06:15.686Z,75.71
2023-03-11T14:08:54.883Z,74.89
2023-03-11T14:11:32.031Z,73.96
2023-03-11T14:14:02.063Z,73.23
2023-03-11T14:16:36.754Z,73.43
2023-03-11T14:19:12.475Z,74.39
2023-03-11T14:21:50.161Z,74.74
2023-03-11T14:24:23.452Z,74.20
2023-03-11T14:26:57.172Z,74.14
2023-03-11T14:29:37.737Z,74.13
2023-03-11T14:32:29.633Z,74.16
2023-03-11T14:34:58.941Z,73.42
2023-03-11T14:37:38.813Z,73.23
2023-03-11T14:40:30.922Z,72.97
2023-03-11T14:43:04.204Z,72.39
2023-03-11T14:45:36.640Z,72.80
2023-03-11T14:48:29.033Z,72.30
2023-03-11T14:51:00.940Z,69.95
2023-03-11T14:53:45.834Z,69.51
2023-03-11T14:56:22.297Z,70.43
2023-03-11T14:59:06.613Z,70.71
2023-03-11T15:01:42.494Z,69.68
2023-03-11T15:04:16.295Z,69.19
2023-03-11T15:06:46.994Z,68.99
2023-03-11T15:09:19.330Z,67.99
2023-03-11T15:12:03.434Z,68.04
2023-03-11T15:14:38.345Z,69.28
2023-03-11T15:17:44.375Z,69.82
2023-03-11T15:20:28.020Z,70.40
2023-03-11T15:23:03.069Z,71.23
2023-03-11T15:25:39.100Z,71.82
2023-03-11T15:28:22.302Z,72.39
2023-03-11T15:31:12.196Z,73.19
2023-03-11T15:33:41.745Z,73.26
2023-03-11T15:36:32.758Z,73.43
2023-03-11T15:39:16.008Z,73.63
2023-03-11T15:42:07.407Z,73.72
2023-03-11T15:44:41.908Z,73.06
2023-03-11T15:47:22.969Z,72.07
2023-03-11T15:49:52.499Z,71.97
2023-03-11T15:52:22.306Z,71.14
2023-03-11T15:54:55.984Z,70.98
2023-03-11T15:57:28.602Z,71.10
2023-03-11T16:00:00.321Z,70.14
2023-03-11T16:02:31.416Z,68.83
2023-03-11T16:05:01.612Z,69.06
2023-03-11T16:07:39.872Z,68.74
2023-03-11T16:10:11.273Z,68.12
2023-03-11T16:12:42.717Z,68.50
2023-03-11T16:15:33.564Z,68.65
2023-03-11T16:18:06.481Z,68.85
2023-03-11T16:20:50.796Z,69.06
2023-03-11T16:23:25.461Z,69.39
2023-03-11T16:26:00.371Z,69.59
2023-03-11T16:28:31.109Z,69.92
2023-03-11T16:31:03.250Z,70.20
2023-03-11T16:33:34.017Z,70.11
2023-03-11T16:36:04.359Z,69.51
2023-03-11T16:38:43.714Z,69.47
2023-03-11T16:41:12.723Z,69.75
2023-03-11T16:43:42.302Z,70.11
2023-03-11T16:46:11.289Z,69.88
2023-03-11T16:48:40.325Z,69.46
2023-03-11T16:51:09.948Z,69.40
2023-03-11T16:53:38.517Z,68.89
2023-03-11T16:56:08.029Z,69.39
2023-03-11T16:58:37.019Z,69.66
2023-03-11T17:01:05.586Z,70.13
2023-03-11T17:03:42.351Z,70.89
2023-03-11T17:06:14.028Z,72.08
2023-03-11T17:08:49.308Z,73.19
2023-03-11T17:11:25.041Z,74.11
2023-03-11T17:14:00.588Z,74.65
2023-03-11T17:16:36.072Z,75.36
2023-03-11T17:19:04.607Z,75.80
2023-03-11T17:21:34.019Z,76.07
2023-03-11T17:24:05.136Z,76.29
2023-03-11T17:26:34.342Z,76.59
2023-03-11T17:29:03.249Z,76.71
2023-03-11T17:31:31.866Z,76.56
2023-03-11T17:34:00.618Z,76.31
2023-03-11T17:36:29.504Z,76.24
2023-03-11T17:38:58.085Z,75.84
2023-03-11T17:41:26.777Z,75.61
2023-03-11T17:43:55.317Z,75.57
2023-03-11T17:46:24.257Z,75.55
2023-03-11T17:48:53.546Z,75.77
2023-03-11T17:51:26.133Z,75.92
2023-03-11T17:53:58.543Z,76.16
2023-03-11T17:56:29.533Z,76.52
2023-03-11T17:58:59.330Z,76.76
2023-03-11T18:01:30.116Z,77.26
2023-03-11T18:03:59.304Z,77.65
2023-03-11T18:06:28.836Z,78.02
2023-03-11T18:08:57.859Z,78.50
2023-03-11T18:11:28.406Z,78.83
2023-03-11T18:13:58.902Z,79.22
2023-03-11T18:16:29.779Z,79.57
2023-03-11T18:19:01.529Z,79.93
2023-03-11T18:21:32.092Z,80.23
2023-03-11T18:24:01.477Z,80.44
2023-03-11T18:26:31.465Z,80.64
2023-03-11T18:29:01.305Z,80.72
2023-03-11T18:31:31.253Z,80.90
2023-03-11T18:34:03.779Z,81.05
2023-03-11T18:36:38.068Z,81.06
2023-03-11T18:39:11.506Z,80.88
2023-03-11T18:41:41.658Z,80.81
2023-03-11T18:44:11.647Z,80.72
2023-03-11T18:46:42.831Z,80.55
2023-03-11T18:49:13.508Z,80.45
2023-03-11T18:51:42.911Z,80.43
2023-03-11T18:54:11.699Z,80.38
2023-03-11T18:56:40.766Z,80.45
2023-03-11T18:59:12.381Z,80.50
2023-03-11T19:01:41.860Z,80.53
2023-03-11T19:04:10.859Z,80.49
2023-03-11T19:06:40.156Z,80.51
2023-03-11T19:09:11.295Z,80.37
2023-03-11T19:11:42.619Z,80.18
2023-03-11T19:14:12.053Z,80.02
2023-03-11T19:16:41.604Z,79.79
2023-03-11T19:19:11.971Z,79.68
2023-03-11T19:21:41.075Z,79.53
2023-03-11T19:24:10.079Z,79.14
2023-03-11T19:26:45.168Z,79.13
2023-03-11T19:29:15.742Z,79.01
2023-03-11T19:31:44.559Z,78.63
2023-03-11T19:34:13.152Z,78.39
2023-03-11T19:36:41.978Z,78.21
2023-03-11T19:39:10.939Z,78.31
2023-03-11T19:41:39.774Z,78.32
2023-03-11T19:44:10.655Z,78.10
2023-03-11T19:46:42.177Z,77.89
2023-03-11T19:49:11.565Z,77.67
2023-03-11T19:51:49.673Z,77.44
2023-03-11T19:54:20.083Z,77.42
2023-03-11T19:56:49.415Z,77.26
2023-03-11T19:59:18.322Z,77.04
2023-03-11T20:01:47.219Z,76.76
2023-03-11T20:04:17.011Z,76.59
2023-03-11T20:06:46.665Z,76.63
2023-03-11T20:09:16.560Z,76.64
2023-03-11T20:11:46.542Z,76.57
2023-03-11T20:14:16.051Z,76.58
2023-03-11T20:16:46.177Z,76.63
2023-03-11T20:19:15.812Z,76.72
2023-03-11T20:21:56.771Z,76.81
2023-03-11T20:24:26.790Z,76.89
2023-03-11T20:26:56.106Z,76.94
2023-03-11T20:29:25.564Z,77.07
2023-03-11T20:31:54.735Z,77.11
2023-03-11T20:34:24.097Z,77.19
2023-03-11T20:36:52.736Z,77.27
2023-03-11T20:39:22.882Z,77.43
2023-03-11T20:41:52.489Z,77.53
2023-03-11T20:44:22.643Z,77.63
2023-03-11T20:46:55.178Z,77.64
2023-03-11T20:49:24.504Z,77.71
2023-03-11T20:51:53.975Z,77.82
2023-03-11T20:54:23.922Z,77.86
2023-03-11T20:56:54.105Z,77.88
2023-03-11T20:59:23.592Z,77.96
2023-03-11T21:01:54.824Z,78.05
2023-03-11T21:04:26.005Z,78.09
2023-03-11T21:06:55.976Z,78.12
2023-03-11T21:09:27.354Z,78.20
2023-03-11T21:11:58.897Z,78.30
2023-03-11T21:14:29.436Z,78.34
2023-03-11T21:17:02.167Z,78.36
2023-03-11T21:19:33.245Z,78.49
2023-03-11T21:22:02.962Z,78.53
2023-03-11T21:24:33.485Z,78.62
2023-03-11T21:27:03.407Z,78.70
2023-03-11T21:29:36.080Z,78.76
2023-03-11T21:32:06.557Z,78.77
2023-03-11T21:34:36.108Z,78.80
2023-03-11T21:37:05.798Z,78.83
2023-03-11T21:39:37.884Z,78.93
2023-03-11T21:42:21.988Z,79.01
2023-03-11T21:44:56.041Z,79.15
2023-03-11T21:47:25.639Z,79.19
2023-03-11T21:49:57.597Z,79.23
2023-03-11T21:52:27.531Z,79.27
2023-03-11T21:54:57.748Z,79.35
2023-03-11T21:57:28.191Z,79.40
2023-03-11T21:59:59.440Z,79.42
2023-03-11T22:02:29.299Z,79.50
2023-03-11T22:05:06.720Z,79.60
2023-03-11T22:07:37.149Z,79.68
2023-03-11T22:10:08.286Z,79.83
2023-03-11T22:12:41.135Z,79.94
2023-03-11T22:15:12.394Z,80.07
2023-03-11T22:17:42.621Z,80.18
2023-03-11T22:20:19.353Z,80.28
2023-03-11T22:22:51.769Z,80.34
2023-03-11T22:25:21.805Z,80.41
2023-03-11T22:27:51.793Z,80.48
2023-03-11T22:30:20.730Z,80.51
2023-03-11T22:32:52.484Z,80.55
2023-03-11T22:35:23.965Z,80.61
2023-03-11T22:37:54.053Z,80.66
2023-03-11T22:40:23.950Z,80.74
2023-03-11T22:42:53.958Z,80.77
2023-03-11T22:45:23.863Z,80.78
2023-03-11T22:47:55.208Z,80.84
2023-03-11T22:50:24.410Z,80.84
2023-03-11T22:52:52.984Z,80.96
2023-03-11T22:55:22.397Z,81.04
2023-03-11T22:57:51.587Z,81.07
2023-03-11T23:00:22.137Z,81.08
2023-03-11T23:02:56.097Z,81.07
2023-03-11T23:05:24.931Z,81.06
2023-03-11T23:07:54.359Z,81.03
2023-03-11T23:10:23.730Z,80.99
2023-03-11T23:12:52.201Z,80.97
2023-03-11T23:15:21.421Z,81.01
2023-03-11T23:17:50.289Z,81.07
2023-03-11T23:20:18.952Z,81.06
2023-03-11T23:22:48.275Z,81.06
2023-03-11T23:25:17.889Z,81.07
2023-03-11T23:27:47.393Z,81.10
2023-03-11T23:30:17.311Z,81.16
2023-03-11T23:32:46.942Z,81.12
2023-03-11T23:35:15.627Z,81.09
2023-03-11T23:37:49.077Z,81.08
2023-03-11T23:40:18.306Z,81.04
2023-03-11T23:42:46.889Z,81.01
2023-03-11T23:45:15.463Z,80.99
2023-03-11T23:47:44.264Z,81.02
2023-03-11T23:50:13.030Z,81.00
2023-03-11T23:52:42.541Z,80.97
2023-03-11T23:55:12.173Z,80.92
2023-03-11T23:57:40.743Z,80.87
